createdAt,value
2022-10-01T00:01:48.793Z,14.60
2022-10-01T00:03:50.498Z,14.60
2022-10-01T00:05:59.074Z,14.60
2022-10-01T00:08:00.795Z,14.60
2022-10-01T00:10:02.437Z,14.60
2022-10-01T00:12:04.026Z,14.60
2022-10-01T00:14:06.211Z,14.60
2022-10-01T00:16:08.833Z,14.60
2022-10-01T00:18:10.574Z,14.60
2022-10-01T00:20:14.596Z,14.60
2022-10-01T00:22:16.631Z,14.70
2022-10-01T00:24:18.669Z,14.70
2022-10-01T00:26:21.240Z,14.70
2022-10-01T00:28:23.081Z,14.70
2022-10-01T00:30:24.720Z,14.70
2022-10-01T00:32:26.677Z,14.70
2022-10-01T00:34:28.647Z,14.70
2022-10-01T00:36:30.607Z,14.70
2022-10-01T00:38:32.730Z,14.70
2022-10-01T00:40:34.438Z,14.70
2022-10-01T00:42:36.048Z,14.70
2022-10-01T00:44:37.647Z,14.70
2022-10-01T00:46:40.662Z,14.70
2022-10-01T00:48:52.447Z,14.70
2022-10-01T00:50:54.075Z,14.70
2022-10-01T00:53:04.847Z,14.70
2022-10-01T00:55:09.555Z,14.70
2022-10-01T00:57:12.369Z,14.80
2022-10-01T00:59:16.131Z,14.80
2022-10-01T01:01:17.791Z,14.80
2022-10-01T01:03:19.533Z,14.80
2022-10-01T01:05:21.265Z,14.80
2022-10-01T01:07:22.866Z,14.80
2022-10-01T01:09:27.431Z,14.80
2022-10-01T01:11:35.083Z,14.80
2022-10-01T01:13:50.190Z,14.80
2022-10-01T01:16:00.287Z,14.80
2022-10-01T01:18:02.183Z,14.80
2022-10-01T01:20:07.569Z,14.80
2022-10-01T01:22:11.106Z,14.80
2022-10-01T01:24:15.640Z,14.80
2022-10-01T01:26:32.648Z,14.80
2022-10-01T01:28:37.811Z,14.90
2022-10-01T01:30:41.217Z,14.80
2022-10-01T01:32:55.168Z,14.90
2022-10-01T01:35:01.019Z,14.90
2022-10-01T01:37:12.228Z,14.90
2022-10-01T01:39:15.958Z,14.90
2022-10-01T01:41:20.074Z,14.90
2022-10-01T01:43:29.527Z,14.90
2022-10-01T01:45:33.661Z,14.90
2022-10-01T01:47:36.626Z,14.90
2022-10-01T01:49:39.411Z,14.90
2022-10-01T01:51:47.678Z,15.00
2022-10-01T01:53:49.619Z,15.00
2022-10-01T01:55:52.075Z,15.00
2022-10-01T01:57:54.273Z,15.00
2022-10-01T01:59:55.938Z,15.00
2022-10-01T02:01:58.951Z,15.00
2022-10-01T02:04:02.997Z,15.00
2022-10-01T02:06:12.215Z,15.00
2022-10-01T02:08:16.781Z,15.00
2022-10-01T02:10:32.109Z,15.00
2022-10-01T02:13:12.745Z,15.00
2022-10-01T02:15:37.215Z,15.00
2022-10-01T02:17:50.460Z,15.00
2022-10-01T02:19:57.545Z,15.00
2022-10-01T02:22:00.832Z,15.00
2022-10-01T02:24:07.578Z,15.00
2022-10-01T02:26:12.275Z,15.00
2022-10-01T02:28:17.918Z,15.00
2022-10-01T02:30:19.561Z,15.00
2022-10-01T02:32:21.596Z,15.00
2022-10-01T02:34:26.606Z,15.00
2022-10-01T02:36:29.619Z,15.00
2022-10-01T02:38:31.770Z,15.00
2022-10-01T02:40:35.722Z,15.00
2022-10-01T02:42:37.706Z,15.00
2022-10-01T02:44:42.478Z,15.00
2022-10-01T02:46:54.542Z,15.00
2022-10-01T02:48:56.815Z,15.00
2022-10-01T02:51:13.473Z,15.00
2022-10-01T02:53:33.580Z,15.00
2022-10-01T02:55:39.197Z,15.00
2022-10-01T02:57:41.938Z,15.00
2022-10-01T02:59:43.502Z,15.00
2022-10-01T03:01:45.164Z,15.00
2022-10-01T03:03:46.788Z,15.00
2022-10-01T03:05:48.419Z,15.00
2022-10-01T03:07:50.159Z,15.00
2022-10-01T03:09:51.841Z,15.00
2022-10-01T03:11:53.442Z,15.00
2022-10-01T03:13:55.041Z,15.10
2022-10-01T03:15:56.725Z,15.10
2022-10-01T03:17:58.399Z,15.10
2022-10-01T03:20:00.021Z,15.10
2022-10-01T03:22:01.675Z,15.10
2022-10-01T03:24:03.451Z,15.10
2022-10-01T03:26:05.074Z,15.10
2022-10-01T03:28:06.802Z,15.10
2022-10-01T03:30:08.803Z,15.10
2022-10-01T03:32:10.570Z,15.10
2022-10-01T03:34:13.248Z,15.10
2022-10-01T03:36:15.171Z,15.20
2022-10-01T03:38:17.148Z,15.10
2022-10-01T03:40:19.317Z,15.10
2022-10-01T03:42:20.900Z,15.10
2022-10-01T03:44:22.472Z,15.10
2022-10-01T03:46:24.048Z,15.10
2022-10-01T03:48:25.655Z,15.10
2022-10-01T03:50:27.228Z,15.10
2022-10-01T03:52:28.907Z,15.10
2022-10-01T03:54:31.089Z,15.10
2022-10-01T03:56:33.157Z,15.10
2022-10-01T03:58:34.738Z,15.10
2022-10-01T04:00:36.321Z,15.10
2022-10-01T04:02:38.057Z,15.10
2022-10-01T04:04:39.752Z,15.10
2022-10-01T04:06:41.550Z,15.10
2022-10-01T04:08:43.189Z,15.10
2022-10-01T04:10:45.083Z,15.10
2022-10-01T04:12:46.694Z,15.10
2022-10-01T04:14:48.313Z,15.10
2022-10-01T04:16:52.205Z,15.10
2022-10-01T04:18:53.821Z,15.10
2022-10-01T04:20:55.564Z,15.20
2022-10-01T04:22:57.139Z,15.10
2022-10-01T04:24:58.754Z,15.10
2022-10-01T04:27:00.321Z,15.10
2022-10-01T04:29:01.922Z,15.10
2022-10-01T04:31:21.943Z,15.10
2022-10-01T04:33:23.554Z,15.10
2022-10-01T04:35:25.332Z,15.10
2022-10-01T04:37:30.177Z,15.10
2022-10-01T04:39:31.747Z,15.10
2022-10-01T04:41:33.719Z,15.10
2022-10-01T04:43:35.903Z,15.10
2022-10-01T04:45:37.847Z,15.10
2022-10-01T04:47:47.098Z,15.10
2022-10-01T04:49:48.985Z,15.10
2022-10-01T04:51:50.590Z,15.10
2022-10-01T04:53:52.202Z,15.10
2022-10-01T04:55:53.797Z,15.00
2022-10-01T04:57:55.406Z,15.00
2022-10-01T04:59:56.982Z,15.00
2022-10-01T05:01:58.696Z,15.10
2022-10-01T05:04:00.467Z,15.00
2022-10-01T05:06:02.069Z,15.00
2022-10-01T05:08:03.641Z,15.00
2022-10-01T05:10:05.692Z,15.00
2022-10-01T05:12:08.072Z,14.90
2022-10-01T05:14:10.946Z,14.90
2022-10-01T05:16:12.588Z,14.90
2022-10-01T05:18:14.200Z,14.90
2022-10-01T05:20:17.739Z,14.90
2022-10-01T05:22:19.355Z,14.90
2022-10-01T05:24:21.002Z,14.80
2022-10-01T05:26:23.045Z,14.80
2022-10-01T05:28:24.676Z,14.90
2022-10-01T05:30:26.393Z,14.80
2022-10-01T05:32:27.984Z,14.80
2022-10-01T05:34:29.687Z,14.80
2022-10-01T05:36:31.251Z,14.80
2022-10-01T05:38:38.771Z,14.70
2022-10-01T05:40:44.842Z,14.70
2022-10-01T05:42:47.017Z,14.70
2022-10-01T05:44:49.975Z,14.70
2022-10-01T05:46:54.650Z,14.70
2022-10-01T05:48:56.253Z,14.70
2022-10-01T05:50:58.554Z,14.70
2022-10-01T05:53:00.772Z,14.70
2022-10-01T05:55:02.447Z,14.70
2022-10-01T05:57:05.085Z,14.70
2022-10-01T05:59:06.905Z,14.70
2022-10-01T06:01:08.518Z,14.80
2022-10-01T06:03:12.949Z,14.80
2022-10-01T06:05:14.759Z,14.80
2022-10-01T06:07:16.347Z,14.80
2022-10-01T06:09:18.077Z,14.80
2022-10-01T06:11:22.012Z,14.80
2022-10-01T06:13:23.598Z,14.90
2022-10-01T06:15:25.256Z,14.80
2022-10-01T06:17:26.866Z,14.80
2022-10-01T06:19:28.455Z,14.80
2022-10-01T06:21:31.835Z,14.80
2022-10-01T06:23:34.114Z,14.90
2022-10-01T06:25:37.189Z,14.90
2022-10-01T06:27:39.077Z,14.80
2022-10-01T06:29:40.665Z,14.90
2022-10-01T06:31:42.283Z,14.90
2022-10-01T06:33:43.932Z,14.90
2022-10-01T06:35:47.159Z,14.90
2022-10-01T06:37:48.736Z,14.80
2022-10-01T06:39:50.530Z,14.80
2022-10-01T06:41:52.118Z,14.80
2022-10-01T06:43:53.897Z,14.80
2022-10-01T06:45:56.305Z,14.80
2022-10-01T06:47:59.661Z,14.80
2022-10-01T06:50:01.284Z,14.80
2022-10-01T06:52:21.693Z,14.80
2022-10-01T06:54:23.286Z,14.80
2022-10-01T06:56:24.875Z,14.70
2022-10-01T06:58:26.540Z,14.80
2022-10-01T07:00:29.229Z,14.80
2022-10-01T07:02:32.276Z,14.70
2022-10-01T07:04:34.037Z,14.80
2022-10-01T07:06:35.617Z,14.80
2022-10-01T07:08:37.223Z,14.80
2022-10-01T07:10:39.596Z,14.80
2022-10-01T07:12:41.298Z,14.70
2022-10-01T07:14:42.959Z,14.80
2022-10-01T07:16:44.640Z,14.70
2022-10-01T07:18:46.297Z,14.80
2022-10-01T07:20:48.874Z,14.80
2022-10-01T07:22:55.886Z,14.70
2022-10-01T07:24:57.528Z,14.80
2022-10-01T07:27:01.609Z,14.80
2022-10-01T07:29:06.137Z,14.80
2022-10-01T07:31:11.261Z,14.80
2022-10-01T07:33:13.348Z,14.80
2022-10-01T07:35:15.083Z,14.80
2022-10-01T07:37:17.031Z,14.80
2022-10-01T07:39:18.682Z,14.70
2022-10-01T07:41:20.291Z,14.80
2022-10-01T07:43:22.571Z,14.80
2022-10-01T07:45:24.786Z,14.70
2022-10-01T07:47:26.374Z,14.80
2022-10-01T07:49:28.074Z,14.70
2022-10-01T07:51:29.820Z,14.80
2022-10-01T07:53:31.681Z,14.70
2022-10-01T07:55:33.307Z,14.70
2022-10-01T07:57:35.031Z,14.70
2022-10-01T07:59:36.719Z,14.70
2022-10-01T08:01:38.610Z,14.70
2022-10-01T08:03:40.382Z,14.60
2022-10-01T08:05:43.149Z,14.60
2022-10-01T08:07:46.053Z,14.60
2022-10-01T08:09:47.658Z,14.70
2022-10-01T08:11:49.262Z,14.60
2022-10-01T08:13:50.862Z,14.60
2022-10-01T08:15:54.608Z,14.60
2022-10-01T08:17:56.188Z,14.60
2022-10-01T08:19:57.788Z,14.60
2022-10-01T08:21:59.418Z,14.60
2022-10-01T08:24:01.779Z,14.60
2022-10-01T08:26:05.425Z,14.60
2022-10-01T08:28:07.742Z,14.50
2022-10-01T08:30:09.643Z,14.50
2022-10-01T08:32:11.293Z,14.50
2022-10-01T08:34:12.955Z,14.50
2022-10-01T08:36:16.382Z,14.50
2022-10-01T08:38:19.639Z,14.50
2022-10-01T08:40:21.707Z,14.50
2022-10-01T08:42:59.852Z,14.50
2022-10-01T08:45:04.219Z,14.50
2022-10-01T08:47:08.291Z,14.50
2022-10-01T08:49:19.708Z,14.40
2022-10-01T08:51:24.045Z,14.40
2022-10-01T08:53:34.898Z,14.40
2022-10-01T08:55:37.361Z,14.40
2022-10-01T08:57:46.897Z,14.50
2022-10-01T08:59:48.484Z,14.40
2022-10-01T09:01:50.086Z,14.40
2022-10-01T09:03:51.721Z,14.40
2022-10-01T09:06:13.598Z,14.40
2022-10-01T09:08:43.516Z,14.30
2022-10-01T09:11:04.231Z,14.30
2022-10-01T09:13:13.764Z,14.30
2022-10-01T09:15:35.865Z,14.40
2022-10-01T09:17:37.501Z,14.40
2022-10-01T09:19:58.069Z,14.40
2022-10-01T09:22:03.207Z,14.40
2022-10-01T09:24:14.268Z,14.40
2022-10-01T09:26:15.924Z,14.40
2022-10-01T09:28:22.253Z,14.40
2022-10-01T09:30:25.155Z,14.40
2022-10-01T09:32:30.012Z,14.40
2022-10-01T09:34:37.256Z,14.40
2022-10-01T09:36:45.000Z,14.40
2022-10-01T09:38:52.460Z,14.40
2022-10-01T09:40:55.664Z,14.40
2022-10-01T09:42:57.309Z,14.40
2022-10-01T09:44:59.797Z,14.40
2022-10-01T09:47:01.445Z,14.40
2022-10-01T09:49:13.691Z,14.40
2022-10-01T09:51:24.486Z,14.50
2022-10-01T09:53:30.979Z,14.50
2022-10-01T09:55:44.140Z,14.50
2022-10-01T09:58:08.935Z,14.50
2022-10-01T10:00:13.883Z,14.50
2022-10-01T10:02:21.890Z,14.50
2022-10-01T10:04:23.759Z,14.50
2022-10-01T10:06:28.106Z,14.50
2022-10-01T10:08:40.110Z,14.50
2022-10-01T10:10:50.040Z,14.50
2022-10-01T10:12:56.047Z,14.50
2022-10-01T10:15:06.293Z,14.50
2022-10-01T10:17:16.824Z,14.50
2022-10-01T10:19:24.291Z,14.60
2022-10-01T10:21:27.577Z,14.60
2022-10-01T10:23:29.372Z,14.60
2022-10-01T10:25:31.060Z,14.60
2022-10-01T10:27:33.440Z,14.60
2022-10-01T10:29:36.053Z,14.60
2022-10-01T10:31:40.664Z,14.70
2022-10-01T10:33:46.827Z,14.60
2022-10-01T10:36:08.316Z,14.60
2022-10-01T10:38:22.166Z,14.70
2022-10-01T10:40:29.695Z,14.70
2022-10-01T10:42:33.276Z,14.60
2022-10-01T10:44:38.787Z,14.70
2022-10-01T10:46:45.341Z,14.60
2022-10-01T10:48:51.154Z,14.70
2022-10-01T10:50:58.293Z,14.70
2022-10-01T10:52:59.935Z,14.70
2022-10-01T10:55:20.105Z,14.70
2022-10-01T10:57:30.001Z,14.70
2022-10-01T10:59:33.095Z,14.70
2022-10-01T11:01:40.371Z,14.70
2022-10-01T11:03:44.140Z,14.70
2022-10-01T11:05:45.873Z,14.70
2022-10-01T11:07:48.414Z,14.70
2022-10-01T11:10:08.934Z,14.70
2022-10-01T11:12:13.648Z,14.70
2022-10-01T11:14:24.042Z,14.80
2022-10-01T11:16:44.616Z,14.80
2022-10-01T11:19:05.551Z,14.80
2022-10-01T11:21:25.796Z,14.80
2022-10-01T11:23:37.585Z,14.90
2022-10-01T11:25:45.267Z,14.80
2022-10-01T11:28:03.447Z,14.90
2022-10-01T11:30:05.555Z,14.90
2022-10-01T11:32:07.202Z,14.90
2022-10-01T11:34:18.910Z,14.90
2022-10-01T11:36:41.398Z,14.90
2022-10-01T11:38:48.901Z,14.90
2022-10-01T11:41:04.550Z,15.00
2022-10-01T11:43:28.596Z,14.90
2022-10-01T11:45:32.629Z,15.00
2022-10-01T11:47:39.204Z,15.00
2022-10-01T11:49:46.381Z,15.00
2022-10-01T11:52:00.465Z,15.00
2022-10-01T11:54:06.846Z,15.00
2022-10-01T11:56:37.957Z,15.00
2022-10-01T11:58:52.441Z,15.10
2022-10-01T12:00:58.059Z,15.00
2022-10-01T12:03:01.440Z,15.10
2022-10-01T12:05:06.552Z,15.10
2022-10-01T12:07:10.983Z,15.10
2022-10-01T12:09:17.445Z,15.10
2022-10-01T12:11:23.361Z,15.10
2022-10-01T12:13:24.989Z,15.10
2022-10-01T12:15:43.607Z,15.10
2022-10-01T12:17:49.092Z,15.20
2022-10-01T12:19:51.888Z,15.20
2022-10-01T12:21:53.501Z,15.20
2022-10-01T12:24:00.428Z,15.20
2022-10-01T12:26:02.016Z,15.30
2022-10-01T12:28:10.659Z,15.30
2022-10-01T12:30:22.987Z,15.30
2022-10-01T12:32:33.883Z,15.30
2022-10-01T12:34:43.069Z,15.40
2022-10-01T12:36:50.405Z,15.40
2022-10-01T12:39:04.811Z,15.40
2022-10-01T12:41:12.287Z,15.40
2022-10-01T12:43:35.273Z,15.50
2022-10-01T12:45:54.223Z,15.50
2022-10-01T12:48:16.330Z,15.50
2022-10-01T12:50:17.969Z,15.50
2022-10-01T12:52:33.688Z,15.50
2022-10-01T12:54:54.019Z,15.50
2022-10-01T12:57:04.763Z,15.50
2022-10-01T12:59:25.384Z,15.60
2022-10-01T13:01:34.311Z,15.60
2022-10-01T13:03:50.110Z,15.60
2022-10-01T13:06:03.740Z,15.60
2022-10-01T13:08:17.545Z,15.60
2022-10-01T13:10:34.838Z,15.70
2022-10-01T13:12:56.478Z,15.70
2022-10-01T13:14:58.904Z,15.70
2022-10-01T13:17:11.907Z,15.80
2022-10-01T13:19:19.558Z,15.70
2022-10-01T13:21:21.464Z,15.80
2022-10-01T13:23:27.337Z,15.70
2022-10-01T13:25:29.212Z,15.80
2022-10-01T13:27:35.767Z,15.80
2022-10-01T13:29:56.134Z,15.80
2022-10-01T13:31:58.874Z,15.80
2022-10-01T13:34:01.695Z,15.80
2022-10-01T13:36:04.886Z,15.90
2022-10-01T13:38:17.127Z,15.90
2022-10-01T13:40:23.931Z,15.90
2022-10-01T13:42:27.635Z,15.90
2022-10-01T13:44:35.812Z,15.90
2022-10-01T13:46:50.039Z,15.90
2022-10-01T13:48:52.329Z,15.90
2022-10-01T13:51:02.957Z,15.90
2022-10-01T13:53:07.315Z,15.90
2022-10-01T13:55:23.995Z,16.00
2022-10-01T13:57:36.189Z,16.00
2022-10-01T13:59:38.095Z,16.00
2022-10-01T14:01:40.951Z,16.00
2022-10-01T14:03:47.571Z,16.00
2022-10-01T14:05:52.830Z,16.10
2022-10-01T14:08:23.697Z,16.00
2022-10-01T14:10:31.870Z,16.10
2022-10-01T14:12:53.009Z,16.10
2022-10-01T14:15:17.580Z,16.10
2022-10-01T14:17:22.639Z,16.10
2022-10-01T14:19:25.808Z,16.10
2022-10-01T14:21:46.261Z,16.10
2022-10-01T14:23:50.314Z,16.10
2022-10-01T14:26:14.089Z,16.10
2022-10-01T14:28:21.666Z,16.10
2022-10-01T14:30:24.307Z,16.10
2022-10-01T14:32:25.881Z,16.10
2022-10-01T14:34:42.649Z,16.10
2022-10-01T14:36:47.111Z,16.20
2022-10-01T14:38:48.755Z,16.20
2022-10-01T14:40:50.725Z,16.20
2022-10-01T14:43:21.817Z,16.20
2022-10-01T14:45:23.516Z,16.20
2022-10-01T14:47:27.846Z,16.30
2022-10-01T14:49:30.540Z,16.30
2022-10-01T14:51:32.254Z,16.30
2022-10-01T14:53:35.324Z,16.30
2022-10-01T14:55:37.011Z,16.30
2022-10-01T14:57:43.334Z,16.30
2022-10-01T14:59:47.249Z,16.40
2022-10-01T15:01:56.966Z,16.40
2022-10-01T15:03:58.719Z,16.40
2022-10-01T15:06:04.117Z,16.40
2022-10-01T15:08:23.009Z,16.40
2022-10-01T15:10:27.991Z,16.40
2022-10-01T15:12:29.651Z,16.50
2022-10-01T15:14:32.125Z,16.50
2022-10-01T15:16:34.646Z,16.50
2022-10-01T15:18:36.804Z,16.50
2022-10-01T15:20:38.438Z,16.50
2022-10-01T15:22:40.465Z,16.50
2022-10-01T15:24:46.360Z,16.60
2022-10-01T15:26:51.277Z,16.60
2022-10-01T15:29:06.911Z,16.60
2022-10-01T15:31:08.604Z,16.60
2022-10-01T15:33:19.660Z,16.60
2022-10-01T15:35:22.498Z,16.60
2022-10-01T15:37:29.583Z,16.70
2022-10-01T15:39:35.972Z,16.70
2022-10-01T15:41:38.065Z,16.70
2022-10-01T15:43:41.532Z,16.70
2022-10-01T15:45:43.268Z,16.70
2022-10-01T15:47:49.248Z,16.70
2022-10-01T15:50:08.819Z,16.70
2022-10-01T15:52:49.362Z,16.70
2022-10-01T15:55:01.473Z,16.80
2022-10-01T15:57:03.975Z,16.80
2022-10-01T15:59:16.445Z,16.80
2022-10-01T16:01:22.516Z,16.80
2022-10-01T16:03:27.594Z,16.80
2022-10-01T16:05:35.602Z,16.80
2022-10-01T16:07:39.456Z,16.80
2022-10-01T16:09:50.713Z,16.80
2022-10-01T16:11:52.492Z,16.80
2022-10-01T16:14:14.225Z,16.80
2022-10-01T16:16:20.869Z,16.90
2022-10-01T16:18:22.782Z,16.90
2022-10-01T16:20:34.351Z,16.80
2022-10-01T16:22:37.565Z,16.80
2022-10-01T16:24:43.813Z,16.80
2022-10-01T16:26:45.953Z,16.80
2022-10-01T16:28:47.879Z,16.80
2022-10-01T16:30:50.329Z,16.80
2022-10-01T16:32:52.915Z,16.80
2022-10-01T16:35:07.680Z,16.80
2022-10-01T16:37:09.670Z,16.80
2022-10-01T16:39:13.747Z,16.80
2022-10-01T16:41:18.033Z,16.80
2022-10-01T16:43:20.755Z,16.80
2022-10-01T16:45:27.002Z,16.90
2022-10-01T16:47:29.045Z,16.80
2022-10-01T16:49:30.838Z,16.80
2022-10-01T16:51:32.678Z,16.90
2022-10-01T16:53:34.846Z,16.80
2022-10-01T16:55:37.620Z,16.90
2022-10-01T16:57:39.678Z,16.80
2022-10-01T16:59:41.444Z,16.90
2022-10-01T17:01:43.486Z,16.90
2022-10-01T17:03:45.119Z,16.90
2022-10-01T17:05:47.187Z,16.90
2022-10-01T17:07:49.016Z,16.90
2022-10-01T17:09:50.627Z,16.90
2022-10-01T17:11:52.269Z,16.90
2022-10-01T17:13:54.199Z,17.00
2022-10-01T17:15:56.201Z,16.90
2022-10-01T17:17:58.520Z,16.90
2022-10-01T17:20:00.173Z,16.90
2022-10-01T17:22:01.791Z,16.90
2022-10-01T17:24:03.474Z,16.90
2022-10-01T17:26:05.832Z,16.90
2022-10-01T17:28:08.595Z,16.90
2022-10-01T17:30:10.528Z,16.90
2022-10-01T17:32:12.324Z,16.90
2022-10-01T17:34:13.983Z,16.90
2022-10-01T17:36:19.249Z,16.90
2022-10-01T17:38:21.390Z,16.90
2022-10-01T17:40:23.143Z,17.00
2022-10-01T17:42:24.797Z,16.90
2022-10-01T17:44:26.811Z,16.90
2022-10-01T17:46:29.137Z,16.90
2022-10-01T17:48:30.862Z,16.90
2022-10-01T17:50:32.943Z,16.90
2022-10-01T17:52:34.580Z,16.90
2022-10-01T17:54:36.501Z,16.90
2022-10-01T17:56:38.829Z,16.90
2022-10-01T17:58:45.051Z,16.90
2022-10-01T18:00:47.536Z,17.00
2022-10-01T18:02:49.397Z,17.00
2022-10-01T18:04:51.276Z,17.00
2022-10-01T18:06:57.943Z,17.00
2022-10-01T18:09:01.349Z,17.00
2022-10-01T18:11:03.929Z,17.00
2022-10-01T18:13:05.621Z,17.00
2022-10-01T18:15:07.649Z,17.00
2022-10-01T18:17:09.586Z,17.00
2022-10-01T18:21:36.213Z,17.10
2022-10-01T18:23:37.941Z,17.00
2022-10-01T18:25:39.588Z,17.00
2022-10-01T18:27:41.973Z,17.00
2022-10-01T18:29:43.746Z,17.00
2022-10-01T18:31:45.767Z,17.00
2022-10-01T18:36:57.404Z,17.00
2022-10-01T18:39:05.058Z,17.00
2022-10-01T18:41:13.630Z,17.00
2022-10-01T18:43:23.347Z,17.00
2022-10-01T18:45:40.275Z,17.10
2022-10-01T18:47:58.666Z,17.10
2022-10-01T18:50:11.254Z,17.10
2022-10-01T18:52:34.979Z,17.10
2022-10-01T18:54:39.519Z,17.10
2022-10-01T18:56:46.134Z,17.20
2022-10-01T18:58:47.910Z,17.20
2022-10-01T19:01:00.365Z,17.20
2022-10-01T19:03:08.234Z,17.20
2022-10-01T19:05:29.583Z,17.20
2022-10-01T19:07:31.416Z,17.20
2022-10-01T19:09:33.133Z,17.30
2022-10-01T19:11:53.343Z,17.30
2022-10-01T19:14:06.152Z,17.20
2022-10-01T19:16:17.017Z,17.20
2022-10-01T19:18:21.867Z,17.30
2022-10-01T19:20:23.547Z,17.20
2022-10-01T19:22:32.009Z,17.30
2022-10-01T19:24:58.003Z,17.30
2022-10-01T19:27:02.470Z,17.30
2022-10-01T19:29:24.429Z,17.30
2022-10-01T19:31:44.912Z,17.30
2022-10-01T19:33:48.919Z,17.30
2022-10-01T19:35:53.200Z,17.30
2022-10-01T19:38:02.573Z,17.30
2022-10-01T19:40:13.077Z,17.30
2022-10-01T19:42:25.849Z,17.30
2022-10-01T19:44:37.129Z,17.40
2022-10-01T19:46:46.732Z,17.30
2022-10-01T19:49:01.680Z,17.40
2022-10-01T19:51:07.886Z,17.40
2022-10-01T19:53:22.778Z,17.30
2022-10-01T19:55:25.011Z,17.40
2022-10-01T19:57:29.696Z,17.40
2022-10-01T19:59:31.394Z,17.40
2022-10-01T20:01:38.409Z,17.40
2022-10-01T20:03:42.729Z,17.40
2022-10-01T20:05:50.562Z,17.30
2022-10-01T20:08:06.262Z,17.30
2022-10-01T20:10:15.280Z,17.30
2022-10-01T20:12:16.912Z,17.30
2022-10-01T20:14:44.385Z,17.30
2022-10-01T20:16:50.024Z,17.30
2022-10-01T20:19:11.224Z,17.30
2022-10-01T20:21:24.899Z,17.30
2022-10-01T20:23:33.185Z,17.40
2022-10-01T20:25:37.655Z,17.40
2022-10-01T20:27:49.554Z,17.30
2022-10-01T20:29:53.311Z,17.40
2022-10-01T20:31:55.015Z,17.40
2022-10-01T20:34:19.685Z,17.30
2022-10-01T20:36:24.754Z,17.30
2022-10-01T20:38:33.593Z,17.40
2022-10-01T20:40:35.229Z,17.30
2022-10-01T20:42:44.106Z,17.30
2022-10-01T20:44:46.187Z,17.40
2022-10-01T20:46:48.591Z,17.30
2022-10-01T20:48:52.370Z,17.40
2022-10-01T20:50:59.716Z,17.40
2022-10-01T20:53:12.968Z,17.40
2022-10-01T20:55:18.074Z,17.40
2022-10-01T20:57:38.774Z,17.40
2022-10-01T20:59:42.239Z,17.40
2022-10-01T21:01:49.449Z,17.40
2022-10-01T21:03:57.141Z,17.40
2022-10-01T21:06:19.689Z,17.40
2022-10-01T21:08:21.285Z,17.40
2022-10-01T21:10:26.915Z,17.40
2022-10-01T21:12:35.652Z,17.40
2022-10-01T21:14:45.515Z,17.40
2022-10-01T21:16:47.310Z,17.40
2022-10-01T21:19:07.711Z,17.40
2022-10-01T21:21:13.144Z,17.40
2022-10-01T21:23:37.089Z,17.40
2022-10-01T21:25:58.439Z,17.40
2022-10-01T21:28:00.138Z,17.40
2022-10-01T21:30:08.025Z,17.40
2022-10-01T21:32:10.818Z,17.40
2022-10-01T21:34:22.866Z,17.40
2022-10-01T21:36:43.156Z,17.50
2022-10-01T21:38:48.937Z,17.40
2022-10-01T21:41:00.885Z,17.50
2022-10-01T21:43:05.865Z,17.50
2022-10-01T21:45:10.345Z,17.50
2022-10-01T21:47:11.945Z,17.50
2022-10-01T21:49:17.562Z,17.50
2022-10-01T21:51:29.105Z,17.50
2022-10-01T21:53:49.615Z,17.60
2022-10-01T21:56:01.840Z,17.40
2022-10-01T21:58:22.217Z,17.40
2022-10-01T22:00:26.431Z,17.40
2022-10-01T22:02:40.458Z,17.50
2022-10-01T22:04:50.138Z,17.40
2022-10-01T22:06:55.617Z,17.40
2022-10-01T22:09:00.060Z,17.40
2022-10-01T22:11:04.172Z,17.50
2022-10-01T22:13:11.152Z,17.40
2022-10-01T22:15:18.140Z,17.50
2022-10-01T22:17:26.240Z,17.50
2022-10-01T22:19:29.191Z,17.50
2022-10-01T22:21:36.831Z,17.40
2022-10-01T22:23:40.886Z,17.50
2022-10-01T22:25:51.145Z,17.50
2022-10-01T22:28:02.579Z,17.40
2022-10-01T22:30:09.611Z,17.50
2022-10-01T22:32:13.552Z,17.40
2022-10-01T22:34:17.919Z,17.40
2022-10-01T22:36:23.604Z,17.40
2022-10-01T22:38:25.236Z,17.40
2022-10-01T22:40:32.726Z,17.50
2022-10-01T22:42:39.885Z,17.40
2022-10-01T22:44:41.770Z,17.50
2022-10-01T22:47:04.004Z,17.50
2022-10-01T22:49:24.383Z,17.40
2022-10-01T22:51:25.969Z,17.40
2022-10-01T22:53:27.554Z,17.50
2022-10-01T22:55:29.109Z,17.50
2022-10-01T22:57:30.671Z,17.40
2022-10-01T22:59:37.621Z,17.40
2022-10-01T23:01:57.870Z,17.50
2022-10-01T23:04:05.414Z,17.50
2022-10-01T23:06:25.483Z,17.50
2022-10-01T23:08:36.276Z,17.50
2022-10-01T23:10:56.745Z,17.50
2022-10-01T23:13:17.350Z,17.50
2022-10-01T23:15:48.344Z,17.50
2022-10-01T23:17:57.829Z,17.50
2022-10-01T23:20:08.473Z,17.50
2022-10-01T23:22:15.597Z,17.50
2022-10-01T23:24:17.988Z,17.50
2022-10-01T23:26:41.781Z,17.60
2022-10-01T23:28:45.255Z,17.50
2022-10-01T23:30:49.838Z,17.50
2022-10-01T23:33:03.127Z,17.50
2022-10-01T23:35:13.087Z,17.60
2022-10-01T23:37:17.752Z,17.60
2022-10-01T23:39:25.824Z,17.50
2022-10-01T23:41:31.267Z,17.50
2022-10-01T23:43:48.071Z,17.50
2022-10-01T23:45:53.198Z,17.60
2022-10-01T23:47:59.221Z,17.50
2022-10-01T23:50:01.961Z,17.60
2022-10-01T23:52:14.654Z,17.50
2022-10-01T23:54:34.872Z,17.50
2022-10-01T23:56:50.872Z,17.50
2022-10-01T23:59:00.664Z,17.50
